sensor_id;sensor_type;location;lat;lon;timestamp;pressure;altitude;pressure_sealevel;temperature;humidity
74079;BME280;62437;51.544;-3.276;2023-06-14T00:01:58;101040.82;;;20.75;36.04
74079;BME280;62437;51.544;-3.276;2023-06-14T00:04:24;101038.69;;;19.73;35.05
74079;BME280;62437;51.544;-3.276;2023-06-14T00:06:50;101037.38;;;19.41;35.11
74079;BME280;62437;51.544;-3.276;2023-06-14T00:09:15;101042.23;;;19.85;34.09
74079;BME280;62437;51.544;-3.276;2023-06-14T00:11:41;101044.20;;;19.87;34.56
74079;BME280;62437;51.544;-3.276;2023-06-14T00:14:06;101041.16;;;19.75;37.85
74079;BME280;62437;51.544;-3.276;2023-06-14T00:16:32;101044.78;;;19.13;38.15
74079;BME280;62437;51.544;-3.276;2023-06-14T00:18:57;101047.51;;;18.00;39.26
74079;BME280;62437;51.544;-3.276;2023-06-14T00:21:23;101048.84;;;18.41;38.70
74079;BME280;62437;51.544;-3.276;2023-06-14T00:23:48;101052.62;;;17.91;41.00
74079;BME280;62437;51.544;-3.276;2023-06-14T00:26:15;101052.34;;;18.26;40.28
74079;BME280;62437;51.544;-3.276;2023-06-14T00:28:40;101056.69;;;17.81;38.21
74079;BME280;62437;51.544;-3.276;2023-06-14T00:31:05;101062.03;;;18.21;40.47
74079;BME280;62437;51.544;-3.276;2023-06-14T00:33:31;101064.92;;;17.55;41.96
74079;BME280;62437;51.544;-3.276;2023-06-14T00:35:56;101068.30;;;17.88;40.49
74079;BME280;62437;51.544;-3.276;2023-06-14T00:38:22;101069.13;;;18.26;38.59
74079;BME280;62437;51.544;-3.276;2023-06-14T00:40:48;101071.94;;;19.52;38.75
74079;BME280;62437;51.544;-3.276;2023-06-14T00:43:13;101079.15;;;17.62;40.03
74079;BME280;62437;51.544;-3.276;2023-06-14T00:45:39;101081.71;;;17.90;41.15
74079;BME280;62437;51.544;-3.276;2023-06-14T00:48:06;101087.95;;;17.34;42.58
74079;BME280;62437;51.544;-3.276;2023-06-14T00:50:30;101087.52;;;17.36;40.82
74079;BME280;62437;51.544;-3.276;2023-06-14T00:52:56;101089.69;;;17.42;40.20
74079;BME280;62437;51.544;-3.276;2023-06-14T00:55:21;101083.68;;;18.12;39.21
74079;BME280;62437;51.544;-3.276;2023-06-14T00:57:48;101090.28;;;17.56;39.66
74079;BME280;62437;51.544;-3.276;2023-06-14T01:00:13;101096.42;;;17.59;41.96
74079;BME280;62437;51.544;-3.276;2023-06-14T01:02:39;101092.31;;;17.48;40.75
74079;BME280;62437;51.544;-3.276;2023-06-14T01:05:05;101090.38;;;17.72;38.56
74079;BME280;62437;51.544;-3.276;2023-06-14T01:07:38;101092.84;;;18.06;37.77
74079;BME280;62437;51.544;-3.276;2023-06-14T01:10:08;101092.71;;;17.75;40.27
74079;BME280;62437;51.544;-3.276;2023-06-14T01:12:28;101101.68;;;16.97;41.89
74079;BME280;62437;51.544;-3.276;2023-06-14T01:14:48;101100.09;;;17.70;39.88
74079;BME280;62437;51.544;-3.276;2023-06-14T01:17:12;101101.55;;;16.87;41.75
74079;BME280;62437;51.544;-3.276;2023-06-14T01:19:38;101105.47;;;16.79;41.96
74079;BME280;62437;51.544;-3.276;2023-06-14T01:22:04;101100.34;;;18.08;40.19
74079;BME280;62437;51.544;-3.276;2023-06-14T01:24:30;101097.85;;;17.98;37.72
74079;BME280;62437;51.544;-3.276;2023-06-14T01:26:56;101098.46;;;17.89;38.02
74079;BME280;62437;51.544;-3.276;2023-06-14T01:29:20;101099.75;;;17.69;37.61
74079;BME280;62437;51.544;-3.276;2023-06-14T01:31:46;101093.85;;;18.49;35.96
74079;BME280;62437;51.544;-3.276;2023-06-14T01:34:12;101095.81;;;17.91;38.75
74079;BME280;62437;51.544;-3.276;2023-06-14T01:36:39;101103.12;;;17.17;39.77
74079;BME280;62437;51.544;-3.276;2023-06-14T01:39:04;101094.71;;;18.14;38.94
74079;BME280;62437;51.544;-3.276;2023-06-14T01:41:29;101098.94;;;17.71;39.16
74079;BME280;62437;51.544;-3.276;2023-06-14T01:43:55;101093.24;;;18.08;39.50
74079;BME280;62437;51.544;-3.276;2023-06-14T01:46:20;101100.19;;;16.93;42.67
74079;BME280;62437;51.544;-3.276;2023-06-14T01:48:44;101097.43;;;17.53;39.79
74079;BME280;62437;51.544;-3.276;2023-06-14T01:51:10;101093.80;;;16.60;41.58
74079;BME280;62437;51.544;-3.276;2023-06-14T01:53:36;101092.27;;;17.38;40.75
74079;BME280;62437;51.544;-3.276;2023-06-14T01:56:02;101091.43;;;16.73;39.76
74079;BME280;62437;51.544;-3.276;2023-06-14T01:58:27;101089.37;;;17.18;40.57
74079;BME280;62437;51.544;-3.276;2023-06-14T02:00:53;101089.82;;;17.10;40.93
74079;BME280;62437;51.544;-3.276;2023-06-14T02:03:18;101085.31;;;16.62;43.86
74079;BME280;62437;51.544;-3.276;2023-06-14T02:05:44;101082.94;;;16.27;43.84
74079;BME280;62437;51.544;-3.276;2023-06-14T02:08:10;101082.16;;;16.25;44.81
74079;BME280;62437;51.544;-3.276;2023-06-14T02:10:35;101080.09;;;15.62;46.64
74079;BME280;62437;51.544;-3.276;2023-06-14T02:13:01;101081.41;;;16.18;44.42
74079;BME280;62437;51.544;-3.276;2023-06-14T02:15:26;101082.23;;;16.00;44.81
74079;BME280;62437;51.544;-3.276;2023-06-14T02:17:52;101083.13;;;15.81;45.76
74079;BME280;62437;51.544;-3.276;2023-06-14T02:20:18;101087.11;;;15.00;47.77
74079;BME280;62437;51.544;-3.276;2023-06-14T02:22:44;101085.39;;;15.16;46.89
74079;BME280;62437;51.544;-3.276;2023-06-14T02:25:09;101089.53;;;15.17;46.99
74079;BME280;62437;51.544;-3.276;2023-06-14T02:27:34;101088.46;;;15.13;47.13
74079;BME280;62437;51.544;-3.276;2023-06-14T02:30:00;101087.58;;;14.84;47.37
74079;BME280;62437;51.544;-3.276;2023-06-14T02:32:26;101083.53;;;14.89;47.57
74079;BME280;62437;51.544;-3.276;2023-06-14T02:34:51;101085.43;;;14.85;46.60
74079;BME280;62437;51.544;-3.276;2023-06-14T02:37:17;101081.73;;;15.18;45.54
74079;BME280;62437;51.544;-3.276;2023-06-14T02:39:43;101077.83;;;16.14;45.43
74079;BME280;62437;51.544;-3.276;2023-06-14T02:42:09;101073.86;;;14.98;47.36
74079;BME280;62437;51.544;-3.276;2023-06-14T02:44:34;101078.50;;;15.14;46.07
74079;BME280;62437;51.544;-3.276;2023-06-14T02:47:00;101077.78;;;15.11;46.81
74079;BME280;62437;51.544;-3.276;2023-06-14T02:49:26;101079.33;;;14.96;46.12
74079;BME280;62437;51.544;-3.276;2023-06-14T02:51:51;101079.15;;;15.11;46.09
74079;BME280;62437;51.544;-3.276;2023-06-14T02:54:16;101077.45;;;14.92;47.03
74079;BME280;62437;51.544;-3.276;2023-06-14T02:56:42;101074.62;;;16.08;44.72
74079;BME280;62437;51.544;-3.276;2023-06-14T02:59:08;101075.72;;;15.50;45.28
74079;BME280;62437;51.544;-3.276;2023-06-14T03:01:34;101074.17;;;15.16;44.81
74079;BME280;62437;51.544;-3.276;2023-06-14T03:03:59;101079.89;;;15.53;46.11
74079;BME280;62437;51.544;-3.276;2023-06-14T03:06:25;101078.22;;;15.82;46.21
74079;BME280;62437;51.544;-3.276;2023-06-14T03:08:51;101081.46;;;15.09;47.34
74079;BME280;62437;51.544;-3.276;2023-06-14T03:11:16;101079.77;;;14.82;47.63
74079;BME280;62437;51.544;-3.276;2023-06-14T03:13:42;101080.36;;;14.73;47.64
74079;BME280;62437;51.544;-3.276;2023-06-14T03:16:07;101087.93;;;14.70;47.97
74079;BME280;62437;51.544;-3.276;2023-06-14T03:18:33;101086.62;;;14.54;49.10
74079;BME280;62437;51.544;-3.276;2023-06-14T03:20:58;101085.23;;;14.26;49.11
74079;BME280;62437;51.544;-3.276;2023-06-14T03:23:24;101082.55;;;14.30;50.10
74079;BME280;62437;51.544;-3.276;2023-06-14T03:25:50;101083.02;;;13.75;49.96
74079;BME280;62437;51.544;-3.276;2023-06-14T03:28:15;101083.07;;;13.93;50.94
74079;BME280;62437;51.544;-3.276;2023-06-14T03:30:41;101080.58;;;13.69;50.48
74079;BME280;62437;51.544;-3.276;2023-06-14T03:33:07;101083.54;;;13.79;50.81
74079;BME280;62437;51.544;-3.276;2023-06-14T03:35:32;101082.42;;;13.58;50.39
74079;BME280;62437;51.544;-3.276;2023-06-14T03:37:58;101085.63;;;13.40;51.27
74079;BME280;62437;51.544;-3.276;2023-06-14T03:40:24;101088.97;;;13.37;51.00
74079;BME280;62437;51.544;-3.276;2023-06-14T03:42:49;101088.08;;;13.59;50.79
74079;BME280;62437;51.544;-3.276;2023-06-14T03:45:15;101096.95;;;13.33;51.17
74079;BME280;62437;51.544;-3.276;2023-06-14T03:47:40;101096.19;;;13.34;51.55
74079;BME280;62437;51.544;-3.276;2023-06-14T03:50:06;101094.28;;;13.33;51.72
74079;BME280;62437;51.544;-3.276;2023-06-14T03:52:32;101093.99;;;13.24;52.59
74079;BME280;62437;51.544;-3.276;2023-06-14T03:54:57;101095.03;;;13.18;52.85
74079;BME280;62437;51.544;-3.276;2023-06-14T03:57:23;101099.36;;;12.89;54.51
74079;BME280;62437;51.544;-3.276;2023-06-14T03:59:49;101100.82;;;12.76;55.31
74079;BME280;62437;51.544;-3.276;2023-06-14T04:02:14;101103.95;;;12.57;54.99
74079;BME280;62437;51.544;-3.276;2023-06-14T04:04:40;101102.06;;;12.84;55.53
74079;BME280;62437;51.544;-3.276;2023-06-14T04:07:06;101103.56;;;13.07;55.67
74079;BME280;62437;51.544;-3.276;2023-06-14T04:09:31;101106.25;;;12.77;55.59
74079;BME280;62437;51.544;-3.276;2023-06-14T04:11:57;101104.84;;;12.76;55.04
74079;BME280;62437;51.544;-3.276;2023-06-14T04:14:23;101103.83;;;12.37;55.88
74079;BME280;62437;51.544;-3.276;2023-06-14T04:16:49;101099.07;;;12.18;54.62
74079;BME280;62437;51.544;-3.276;2023-06-14T04:19:14;101100.95;;;12.33;55.79
74079;BME280;62437;51.544;-3.276;2023-06-14T04:21:40;101102.37;;;12.77;55.35
74079;BME280;62437;51.544;-3.276;2023-06-14T04:24:05;101104.85;;;12.68;55.83
74079;BME280;62437;51.544;-3.276;2023-06-14T04:26:31;101106.74;;;12.59;55.79
74079;BME280;62437;51.544;-3.276;2023-06-14T04:28:56;101102.52;;;12.45;55.35
74079;BME280;62437;51.544;-3.276;2023-06-14T04:31:22;101103.00;;;12.50;54.37
74079;BME280;62437;51.544;-3.276;2023-06-14T04:33:48;101100.67;;;12.89;54.50
74079;BME280;62437;51.544;-3.276;2023-06-14T04:36:14;101102.47;;;12.61;55.32
74079;BME280;62437;51.544;-3.276;2023-06-14T04:38:39;101101.21;;;13.17;54.17
74079;BME280;62437;51.544;-3.276;2023-06-14T04:41:05;101107.61;;;12.74;54.23
74079;BME280;62437;51.544;-3.276;2023-06-14T04:43:31;101108.17;;;12.96;54.37
74079;BME280;62437;51.544;-3.276;2023-06-14T04:45:56;101110.16;;;12.89;52.39
74079;BME280;62437;51.544;-3.276;2023-06-14T04:48:22;101106.42;;;13.61;47.74
74079;BME280;62437;51.544;-3.276;2023-06-14T04:50:47;101110.23;;;13.60;48.41
74079;BME280;62437;51.544;-3.276;2023-06-14T04:53:13;101107.34;;;13.67;45.64
74079;BME280;62437;51.544;-3.276;2023-06-14T04:55:39;101105.82;;;13.88;44.37
74079;BME280;62437;51.544;-3.276;2023-06-14T04:58:04;101110.99;;;13.69;49.05
74079;BME280;62437;51.544;-3.276;2023-06-14T05:00:31;101117.01;;;13.87;49.59
74079;BME280;62437;51.544;-3.276;2023-06-14T05:02:55;101118.91;;;13.57;51.37
74079;BME280;62437;51.544;-3.276;2023-06-14T05:05:21;101122.18;;;13.18;51.87
74079;BME280;62437;51.544;-3.276;2023-06-14T05:07:47;101118.36;;;14.02;48.76
74079;BME280;62437;51.544;-3.276;2023-06-14T05:10:12;101121.11;;;13.58;47.38
74079;BME280;62437;51.544;-3.276;2023-06-14T05:12:38;101124.16;;;14.06;45.82
74079;BME280;62437;51.544;-3.276;2023-06-14T05:15:04;101129.15;;;13.34;46.39
74079;BME280;62437;51.544;-3.276;2023-06-14T05:17:29;101127.57;;;13.53;47.18
74079;BME280;62437;51.544;-3.276;2023-06-14T05:19:55;101127.20;;;13.28;44.89
74079;BME280;62437;51.544;-3.276;2023-06-14T05:22:21;101128.17;;;13.62;45.55
74079;BME280;62437;51.544;-3.276;2023-06-14T05:24:46;101128.69;;;13.65;47.35
74079;BME280;62437;51.544;-3.276;2023-06-14T05:27:12;101127.49;;;13.70;46.36
74079;BME280;62437;51.544;-3.276;2023-06-14T05:29:38;101124.92;;;13.63;39.09
74079;BME280;62437;51.544;-3.276;2023-06-14T05:32:04;101128.40;;;13.62;45.32
74079;BME280;62437;51.544;-3.276;2023-06-14T05:34:29;101128.37;;;14.08;43.60
74079;BME280;62437;51.544;-3.276;2023-06-14T05:36:55;101131.14;;;13.52;39.47
74079;BME280;62437;51.544;-3.276;2023-06-14T05:39:20;101132.48;;;13.38;39.35
74079;BME280;62437;51.544;-3.276;2023-06-14T05:41:46;101123.38;;;13.84;37.36
74079;BME280;62437;51.544;-3.276;2023-06-14T05:44:12;101124.39;;;14.13;37.35
74079;BME280;62437;51.544;-3.276;2023-06-14T05:46:38;101120.80;;;14.35;38.57
74079;BME280;62437;51.544;-3.276;2023-06-14T05:49:03;101122.94;;;14.28;34.87
74079;BME280;62437;51.544;-3.276;2023-06-14T05:51:29;101126.81;;;14.28;36.89
74079;BME280;62437;51.544;-3.276;2023-06-14T05:53:54;101126.54;;;13.90;35.12
74079;BME280;62437;51.544;-3.276;2023-06-14T05:56:20;101128.53;;;13.53;32.13
74079;BME280;62437;51.544;-3.276;2023-06-14T05:58:46;101128.48;;;13.40;34.56
74079;BME280;62437;51.544;-3.276;2023-06-14T06:01:11;101132.31;;;14.01;36.30
74079;BME280;62437;51.544;-3.276;2023-06-14T06:03:37;101132.83;;;14.04;32.78
74079;BME280;62437;51.544;-3.276;2023-06-14T06:06:02;101131.11;;;15.76;31.80
74079;BME280;62437;51.544;-3.276;2023-06-14T06:08:28;101133.79;;;16.75;29.72
74079;BME280;62437;51.544;-3.276;2023-06-14T06:10:54;101136.43;;;17.10;28.99
74079;BME280;62437;51.544;-3.276;2023-06-14T06:13:19;101140.69;;;17.35;27.31
74079;BME280;62437;51.544;-3.276;2023-06-14T06:15:45;101139.61;;;18.03;26.49
74079;BME280;62437;51.544;-3.276;2023-06-14T06:18:10;101143.21;;;18.35;26.31
74079;BME280;62437;51.544;-3.276;2023-06-14T06:20:36;101145.09;;;18.27;28.77
74079;BME280;62437;51.544;-3.276;2023-06-14T06:23:01;101138.77;;;18.34;29.90
74079;BME280;62437;51.544;-3.276;2023-06-14T06:25:27;101138.60;;;18.52;25.80
74079;BME280;62437;51.544;-3.276;2023-06-14T06:27:52;101138.91;;;18.81;25.47
74079;BME280;62437;51.544;-3.276;2023-06-14T06:30:18;101146.54;;;18.13;25.04
74079;BME280;62437;51.544;-3.276;2023-06-14T06:32:43;101148.42;;;18.28;27.24
74079;BME280;62437;51.544;-3.276;2023-06-14T06:35:09;101147.80;;;18.29;27.19
74079;BME280;62437;51.544;-3.276;2023-06-14T06:37:34;101147.04;;;18.50;26.49
74079;BME280;62437;51.544;-3.276;2023-06-14T06:40:00;101149.88;;;19.29;25.78
74079;BME280;62437;51.544;-3.276;2023-06-14T06:42:26;101151.69;;;18.65;25.83
74079;BME280;62437;51.544;-3.276;2023-06-14T06:44:51;101152.45;;;18.15;26.54
74079;BME280;62437;51.544;-3.276;2023-06-14T06:47:17;101146.94;;;19.01;27.24
74079;BME280;62437;51.544;-3.276;2023-06-14T06:49:43;101145.67;;;18.63;24.89
74079;BME280;62437;51.544;-3.276;2023-06-14T06:52:08;101144.50;;;18.76;24.87
74079;BME280;62437;51.544;-3.276;2023-06-14T06:54:33;101143.17;;;18.68;26.53
74079;BME280;62437;51.544;-3.276;2023-06-14T06:56:58;101147.44;;;18.59;26.68
74079;BME280;62437;51.544;-3.276;2023-06-14T06:59:24;101144.04;;;18.93;25.84
74079;BME280;62437;51.544;-3.276;2023-06-14T07:01:49;101147.90;;;19.12;28.76
74079;BME280;62437;51.544;-3.276;2023-06-14T07:04:15;101148.47;;;17.93;27.03
74079;BME280;62437;51.544;-3.276;2023-06-14T07:06:43;101147.70;;;17.13;27.25
74079;BME280;62437;51.544;-3.276;2023-06-14T07:09:06;101146.27;;;16.62;30.03
74079;BME280;62437;51.544;-3.276;2023-06-14T07:11:31;101149.70;;;16.73;28.80
74079;BME280;62437;51.544;-3.276;2023-06-14T07:13:57;101149.97;;;16.48;28.22
74079;BME280;62437;51.544;-3.276;2023-06-14T07:16:23;101154.17;;;16.63;31.24
74079;BME280;62437;51.544;-3.276;2023-06-14T07:18:48;101157.60;;;15.95;31.43
74079;BME280;62437;51.544;-3.276;2023-06-14T07:21:14;101158.06;;;16.17;31.02
74079;BME280;62437;51.544;-3.276;2023-06-14T07:23:39;101159.73;;;16.19;30.83
74079;BME280;62437;51.544;-3.276;2023-06-14T07:26:05;101156.28;;;16.21;30.27
74079;BME280;62437;51.544;-3.276;2023-06-14T07:28:31;101160.64;;;16.62;31.06
74079;BME280;62437;51.544;-3.276;2023-06-14T07:30:56;101162.33;;;16.72;32.35
74079;BME280;62437;51.544;-3.276;2023-06-14T07:33:22;101160.77;;;16.75;34.56
74079;BME280;62437;51.544;-3.276;2023-06-14T07:35:48;101160.38;;;17.18;31.96
74079;BME280;62437;51.544;-3.276;2023-06-14T07:38:13;101160.39;;;16.60;31.85
74079;BME280;62437;51.544;-3.276;2023-06-14T07:40:39;101161.48;;;16.53;32.95
74079;BME280;62437;51.544;-3.276;2023-06-14T07:43:04;101159.03;;;17.11;32.86
74079;BME280;62437;51.544;-3.276;2023-06-14T07:45:30;101159.48;;;16.80;32.27
74079;BME280;62437;51.544;-3.276;2023-06-14T07:47:56;101159.52;;;16.48;32.67
74079;BME280;62437;51.544;-3.276;2023-06-14T07:50:21;101159.55;;;16.91;36.24
74079;BME280;62437;51.544;-3.276;2023-06-14T07:52:47;101161.38;;;17.43;32.03
74079;BME280;62437;51.544;-3.276;2023-06-14T07:55:12;101155.71;;;17.05;33.40
74079;BME280;62437;51.544;-3.276;2023-06-14T07:57:38;101157.73;;;16.53;33.12
74079;BME280;62437;51.544;-3.276;2023-06-14T08:00:05;101152.76;;;16.39;34.75
74079;BME280;62437;51.544;-3.276;2023-06-14T08:02:29;101153.24;;;16.81;35.05
74079;BME280;62437;51.544;-3.276;2023-06-14T08:04:55;101152.02;;;16.65;32.01
74079;BME280;62437;51.544;-3.276;2023-06-14T08:07:20;101151.11;;;17.37;30.96
74079;BME280;62437;51.544;-3.276;2023-06-14T08:09:46;101148.92;;;17.19;30.64
74079;BME280;62437;51.544;-3.276;2023-06-14T08:12:12;101148.87;;;17.86;30.68
74079;BME280;62437;51.544;-3.276;2023-06-14T08:14:39;101148.65;;;17.56;28.99
74079;BME280;62437;51.544;-3.276;2023-06-14T08:17:03;101152.59;;;17.58;30.26
74079;BME280;62437;51.544;-3.276;2023-06-14T08:19:28;101150.34;;;18.64;31.64
74079;BME280;62437;51.544;-3.276;2023-06-14T08:21:54;101157.21;;;17.97;31.82
74079;BME280;62437;51.544;-3.276;2023-06-14T08:24:21;101156.27;;;18.08;32.57
74079;BME280;62437;51.544;-3.276;2023-06-14T08:26:45;101155.95;;;18.13;30.96
74079;BME280;62437;51.544;-3.276;2023-06-14T08:29:11;101156.32;;;17.96;31.17
74079;BME280;62437;51.544;-3.276;2023-06-14T08:31:37;101159.20;;;18.00;31.25
74079;BME280;62437;51.544;-3.276;2023-06-14T08:34:02;101158.76;;;17.91;29.34
74079;BME280;62437;51.544;-3.276;2023-06-14T08:36:29;101159.81;;;17.75;31.12
74079;BME280;62437;51.544;-3.276;2023-06-14T08:38:54;101159.55;;;18.08;27.92
74079;BME280;62437;51.544;-3.276;2023-06-14T08:41:21;101155.51;;;18.66;28.03
74079;BME280;62437;51.544;-3.276;2023-06-14T08:43:45;101150.64;;;18.87;27.69
74079;BME280;62437;51.544;-3.276;2023-06-14T08:46:10;101152.35;;;18.49;27.28
74079;BME280;62437;51.544;-3.276;2023-06-14T08:48:37;101154.39;;;17.84;27.88
74079;BME280;62437;51.544;-3.276;2023-06-14T08:51:03;101152.53;;;18.36;27.62
74079;BME280;62437;51.544;-3.276;2023-06-14T08:53:28;101150.30;;;19.04;27.62
74079;BME280;62437;51.544;-3.276;2023-06-14T08:55:52;101148.83;;;19.18;26.78
74079;BME280;62437;51.544;-3.276;2023-06-14T08:58:18;101150.20;;;19.33;26.70
74079;BME280;62437;51.544;-3.276;2023-06-14T09:00:44;101151.71;;;18.82;28.23
74079;BME280;62437;51.544;-3.276;2023-06-14T09:03:09;101150.52;;;18.74;28.41
74079;BME280;62437;51.544;-3.276;2023-06-14T09:05:35;101152.35;;;18.98;27.30
74079;BME280;62437;51.544;-3.276;2023-06-14T09:08:00;101151.60;;;19.48;26.04
74079;BME280;62437;51.544;-3.276;2023-06-14T09:10:27;101153.94;;;19.13;27.13
74079;BME280;62437;51.544;-3.276;2023-06-14T09:12:52;101155.44;;;19.67;25.74
74079;BME280;62437;51.544;-3.276;2023-06-14T09:15:17;101155.58;;;20.31;25.87
74079;BME280;62437;51.544;-3.276;2023-06-14T09:17:43;101152.19;;;19.90;25.13
74079;BME280;62437;51.544;-3.276;2023-06-14T09:20:09;101149.21;;;20.40;25.68
74079;BME280;62437;51.544;-3.276;2023-06-14T09:22:34;101153.24;;;20.27;25.37
74079;BME280;62437;51.544;-3.276;2023-06-14T09:25:00;101153.76;;;19.67;23.18
74079;BME280;62437;51.544;-3.276;2023-06-14T09:27:25;101155.02;;;19.96;23.21
74079;BME280;62437;51.544;-3.276;2023-06-14T09:29:51;101157.19;;;19.21;27.79
74079;BME280;62437;51.544;-3.276;2023-06-14T09:32:17;101158.34;;;19.43;22.43
74079;BME280;62437;51.544;-3.276;2023-06-14T09:34:42;101156.12;;;20.06;22.85
74079;BME280;62437;51.544;-3.276;2023-06-14T09:37:08;101157.95;;;20.78;22.13
74079;BME280;62437;51.544;-3.276;2023-06-14T09:39:33;101165.57;;;21.67;24.65
74079;BME280;62437;51.544;-3.276;2023-06-14T09:41:59;101159.09;;;20.60;26.32
74079;BME280;62437;51.544;-3.276;2023-06-14T09:44:26;101159.90;;;20.75;25.79
74079;BME280;62437;51.544;-3.276;2023-06-14T09:46:50;101160.02;;;21.74;27.38
74079;BME280;62437;51.544;-3.276;2023-06-14T09:49:16;101164.13;;;22.64;24.75
74079;BME280;62437;51.544;-3.276;2023-06-14T09:51:43;101161.84;;;21.48;24.64
74079;BME280;62437;51.544;-3.276;2023-06-14T09:54:07;101167.33;;;21.64;25.57
74079;BME280;62437;51.544;-3.276;2023-06-14T09:56:37;101166.99;;;21.56;23.98
74079;BME280;62437;51.544;-3.276;2023-06-14T09:58:59;101166.19;;;20.99;27.36
74079;BME280;62437;51.544;-3.276;2023-06-14T10:01:25;101165.17;;;21.34;23.32
74079;BME280;62437;51.544;-3.276;2023-06-14T10:03:50;101165.58;;;21.32;24.96
74079;BME280;62437;51.544;-3.276;2023-06-14T10:06:15;101165.84;;;21.50;22.98
74079;BME280;62437;51.544;-3.276;2023-06-14T10:08:40;101168.73;;;20.62;24.47
74079;BME280;62437;51.544;-3.276;2023-06-14T10:11:06;101170.47;;;21.20;24.04
74079;BME280;62437;51.544;-3.276;2023-06-14T10:13:32;101173.25;;;21.88;28.31
74079;BME280;62437;51.544;-3.276;2023-06-14T10:16:05;101171.94;;;21.28;23.04
74079;BME280;62437;51.544;-3.276;2023-06-14T10:18:33;101170.73;;;21.55;24.63
74079;BME280;62437;51.544;-3.276;2023-06-14T10:20:53;101176.64;;;21.87;28.21
74079;BME280;62437;51.544;-3.276;2023-06-14T10:23:18;101182.79;;;21.39;25.21
74079;BME280;62437;51.544;-3.276;2023-06-14T10:25:39;101181.69;;;21.10;25.39
74079;BME280;62437;51.544;-3.276;2023-06-14T10:28:15;101177.27;;;22.52;32.69
74079;BME280;62437;51.544;-3.276;2023-06-14T10:30:30;101177.59;;;21.67;26.66
74079;BME280;62437;51.544;-3.276;2023-06-14T10:33:04;101173.40;;;20.61;24.26
74079;BME280;62437;51.544;-3.276;2023-06-14T10:35:21;101170.99;;;21.30;24.78
74079;BME280;62437;51.544;-3.276;2023-06-14T10:37:47;101172.50;;;20.89;24.27
74079;BME280;62437;51.544;-3.276;2023-06-14T10:40:30;101172.87;;;21.32;25.42
74079;BME280;62437;51.544;-3.276;2023-06-14T10:42:38;101171.98;;;21.21;24.28
74079;BME280;62437;51.544;-3.276;2023-06-14T10:45:04;101171.23;;;23.55;29.91
74079;BME280;62437;51.544;-3.276;2023-06-14T10:47:30;101174.64;;;22.67;24.38
74079;BME280;62437;51.544;-3.276;2023-06-14T10:49:55;101176.00;;;21.64;24.94
74079;BME280;62437;51.544;-3.276;2023-06-14T10:52:27;101179.72;;;22.31;24.40
74079;BME280;62437;51.544;-3.276;2023-06-14T10:55:00;101173.63;;;22.63;27.12
74079;BME280;62437;51.544;-3.276;2023-06-14T10:57:11;101172.36;;;22.68;24.83
74079;BME280;62437;51.544;-3.276;2023-06-14T10:59:37;101169.83;;;22.81;25.69
74079;BME280;62437;51.544;-3.276;2023-06-14T11:02:18;101171.81;;;22.28;26.72
74079;BME280;62437;51.544;-3.276;2023-06-14T11:04:39;101174.21;;;22.11;24.30
74079;BME280;62437;51.544;-3.276;2023-06-14T11:07:02;101169.79;;;22.34;23.14
74079;BME280;62437;51.544;-3.276;2023-06-14T11:11:46;101162.83;;;23.20;24.20
74079;BME280;62437;51.544;-3.276;2023-06-14T11:14:10;101156.67;;;24.81;26.29
74079;BME280;62437;51.544;-3.276;2023-06-14T11:16:36;101157.00;;;24.13;21.99
74079;BME280;62437;51.544;-3.276;2023-06-14T11:19:01;101162.79;;;24.41;24.57
74079;BME280;62437;51.544;-3.276;2023-06-14T11:21:27;101158.40;;;22.60;20.75
74079;BME280;62437;51.544;-3.276;2023-06-14T11:23:52;101157.99;;;22.90;21.74
74079;BME280;62437;51.544;-3.276;2023-06-14T11:26:25;101165.12;;;21.93;21.13
74079;BME280;62437;51.544;-3.276;2023-06-14T11:28:44;101165.52;;;21.82;20.40
74079;BME280;62437;51.544;-3.276;2023-06-14T11:31:09;101159.25;;;22.53;22.18
74079;BME280;62437;51.544;-3.276;2023-06-14T11:33:35;101153.78;;;22.20;18.56
74079;BME280;62437;51.544;-3.276;2023-06-14T11:36:02;101150.67;;;21.55;20.01
74079;BME280;62437;51.544;-3.276;2023-06-14T11:38:26;101149.57;;;22.12;21.16
74079;BME280;62437;51.544;-3.276;2023-06-14T11:40:51;101149.50;;;21.98;21.36
74079;BME280;62437;51.544;-3.276;2023-06-14T11:43:17;101145.55;;;22.35;20.04
74079;BME280;62437;51.544;-3.276;2023-06-14T11:45:43;101145.14;;;22.29;20.17
74079;BME280;62437;51.544;-3.276;2023-06-14T11:48:08;101142.85;;;21.35;20.45
74079;BME280;62437;51.544;-3.276;2023-06-14T11:50:38;101150.78;;;22.19;19.58
74079;BME280;62437;51.544;-3.276;2023-06-14T11:53:00;101145.12;;;21.71;21.67
74079;BME280;62437;51.544;-3.276;2023-06-14T11:55:25;101137.38;;;23.21;21.52
74079;BME280;62437;51.544;-3.276;2023-06-14T11:57:51;101132.43;;;24.43;20.45
74079;BME280;62437;51.544;-3.276;2023-06-14T12:00:17;101131.78;;;22.57;20.12
74079;BME280;62437;51.544;-3.276;2023-06-14T12:02:42;101130.07;;;21.83;21.34
74079;BME280;62437;51.544;-3.276;2023-06-14T12:05:08;101132.56;;;22.91;24.12
74079;BME280;62437;51.544;-3.276;2023-06-14T12:07:33;101133.19;;;22.45;20.56
74079;BME280;62437;51.544;-3.276;2023-06-14T12:10:06;101128.39;;;22.56;23.45
74079;BME280;62437;51.544;-3.276;2023-06-14T12:12:26;101126.40;;;22.32;22.65
74079;BME280;62437;51.544;-3.276;2023-06-14T12:14:50;101124.56;;;22.58;21.75
74079;BME280;62437;51.544;-3.276;2023-06-14T12:17:17;101129.34;;;22.10;21.96
74079;BME280;62437;51.544;-3.276;2023-06-14T12:19:42;101125.75;;;23.27;23.44
74079;BME280;62437;51.544;-3.276;2023-06-14T12:22:06;101136.24;;;22.97;20.68
74079;BME280;62437;51.544;-3.276;2023-06-14T12:24:32;101130.99;;;22.83;21.22
74079;BME280;62437;51.544;-3.276;2023-06-14T12:26:58;101131.36;;;22.25;21.68
74079;BME280;62437;51.544;-3.276;2023-06-14T12:29:23;101122.77;;;22.79;21.21
74079;BME280;62437;51.544;-3.276;2023-06-14T12:31:48;101122.64;;;23.28;21.51
74079;BME280;62437;51.544;-3.276;2023-06-14T12:34:14;101122.11;;;23.57;20.95